Time;durP1;ratioP1;P1;durP2;ratioP2;P2;SDS_P1;SDS_P2;PMS_P1;PMS_P2;Temp;Humidity;BMP_temperature;BMP_pressure;BME280_temperature;BME280_humidity;BME280_pressure;Samples;Min_cycle;Max_cycle;Signal;HPM_P1;HPM_P2
2021/04/13 00:01:20;;;;;;;32.85;18.80;;;2.10;99.90;;;;;;5063887;28;20106;-56
2021/04/13 00:03:54;;;;;;;39.50;20.17;;;2.20;99.90;;;;;;5045040;28;20044;-57
2021/04/13 00:06:41;;;;;;;45.13;21.15;;;2.20;99.90;;;;;;5032234;28;20028;-57
2021/04/13 00:09:22;;;;;;;41.13;19.15;;;2.40;99.90;;;;;;5048774;28;20121;-55
2021/04/13 00:11:56;;;;;;;43.42;20.55;;;2.50;99.90;;;;;;5057420;28;20108;-56
2021/04/13 00:14:29;;;;;;;37.40;20.77;;;2.50;99.90;;;;;;5043738;28;20132;-57
2021/04/13 00:16:58;;;;;;;41.58;21.35;;;2.60;99.90;;;;;;5056289;28;20048;-57
2021/04/13 00:19:31;;;;;;;43.88;21.48;;;2.60;99.90;;;;;;5060865;28;20035;-58
2021/04/13 00:21:57;;;;;;;43.13;22.05;;;2.60;99.90;;;;;;5031128;28;20033;-52
2021/04/13 00:24:23;;;;;;;46.90;22.13;;;2.60;99.90;;;;;;5061417;28;20028;-57
2021/04/13 00:26:52;;;;;;;49.55;24.27;;;2.60;99.90;;;;;;5049196;28;20037;-57
2021/04/13 00:29:22;;;;;;;50.45;23.30;;;2.60;99.90;;;;;;5060474;28;20390;-57
2021/04/13 00:31:49;;;;;;;44.00;22.58;;;2.60;99.90;;;;;;5049615;28;20043;-56
2021/04/13 00:34:17;;;;;;;49.60;24.67;;;2.50;99.90;;;;;;5059157;28;20031;-55
2021/04/13 00:36:43;;;;;;;47.33;24.05;;;2.50;99.90;;;;;;5050326;28;20071;-56
2021/04/13 00:39:29;;;;;;;45.38;23.83;;;2.50;99.90;;;;;;5050711;28;20029;-54
2021/04/13 00:41:59;;;;;;;52.80;24.90;;;2.40;99.90;;;;;;5054917;28;20021;-57
2021/04/13 00:44:26;;;;;;;54.42;24.95;;;2.30;99.90;;;;;;5062010;28;20398;-57
2021/04/13 00:47:08;;;;;;;55.00;24.98;;;2.30;99.90;;;;;;5049908;28;20025;-55
2021/04/13 00:49:46;;;;;;;55.47;26.63;;;2.20;99.90;;;;;;5056573;28;20102;-55
2021/04/13 00:52:16;;;;;;;51.42;24.92;;;2.10;99.90;;;;;;5056392;28;20024;-53
2021/04/13 00:54:47;;;;;;;54.45;25.38;;;2.00;99.90;;;;;;5056477;28;20028;-55
2021/04/13 00:57:21;;;;;;;53.45;25.13;;;1.90;99.90;;;;;;5048196;28;20084;-57
2021/04/13 00:59:48;;;;;;;49.22;24.42;;;1.90;99.90;;;;;;5054034;28;20021;-56
2021/04/13 01:02:19;;;;;;;56.45;25.48;;;1.90;99.90;;;;;;5047339;28;20079;-53
2021/04/13 01:05:17;;;;;;;54.33;26.27;;;1.90;99.90;;;;;;5052253;28;20025;-55
2021/04/13 01:07:46;;;;;;;64.97;25.80;;;1.90;99.90;;;;;;5051904;28;20509;-55
2021/04/13 01:10:36;;;;;;;60.92;27.13;;;1.90;99.90;;;;;;5033422;28;20486;-56
2021/04/13 01:13:04;;;;;;;56.10;25.50;;;1.80;99.90;;;;;;5055883;28;20494;-55
2021/04/13 01:15:30;;;;;;;55.90;26.80;;;1.70;99.90;;;;;;5051106;28;20037;-56
2021/04/13 01:17:56;;;;;;;54.40;26.98;;;1.70;99.90;;;;;;5048311;28;20033;-57
2021/04/13 01:20:35;;;;;;;61.15;27.30;;;1.60;99.90;;;;;;5050075;28;20384;-56
2021/04/13 01:23:06;;;;;;;57.03;26.80;;;1.50;99.90;;;;;;5050296;28;20040;-54
2021/04/13 01:25:35;;;;;;;60.17;27.95;;;1.40;99.90;;;;;;5047232;28;20022;-56
2021/04/13 01:28:10;;;;;;;59.00;27.48;;;1.40;99.90;;;;;;5056253;28;20613;-56
2021/04/13 01:30:44;;;;;;;53.45;27.42;;;1.50;99.90;;;;;;5053165;28;20072;-55
2021/04/13 01:33:16;;;;;;;62.17;27.08;;;1.50;99.90;;;;;;5056381;28;20024;-56
2021/04/13 01:35:48;;;;;;;54.72;27.50;;;1.60;99.90;;;;;;5052264;28;20025;-55
2021/04/13 01:43:18;;;;;;;60.03;28.05;;;1.60;99.90;;;;;;5054007;28;20035;-57
2021/04/13 01:45:48;;;;;;;63.40;30.95;;;1.60;99.90;;;;;;5058328;28;20079;-57
2021/04/13 01:48:15;;;;;;;59.25;28.92;;;1.60;99.90;;;;;;5053135;28;20115;-57
2021/04/13 01:50:52;;;;;;;67.28;30.88;;;1.60;99.90;;;;;;5052758;28;20032;-54
2021/04/13 01:53:22;;;;;;;62.10;30.52;;;1.60;99.90;;;;;;5043730;28;20028;-57
2021/04/13 01:56:04;;;;;;;62.65;29.23;;;1.60;99.90;;;;;;5062635;28;20021;-57
2021/04/13 01:58:49;;;;;;;62.92;29.05;;;1.60;99.90;;;;;;5055493;28;20367;-53
2021/04/13 02:01:25;;;;;;;;;;;1.60;99.90;;;;;;5048628;28;20021;-58
2021/04/13 02:04:05;;;;;;;64.40;30.20;;;1.50;99.90;;;;;;5060331;28;20388;-57
2021/04/13 02:06:43;;;;;;;60.08;30.50;;;1.40;99.90;;;;;;5052437;28;20079;-57
2021/04/13 02:09:37;;;;;;;64.60;30.98;;;1.40;99.90;;;;;;5050741;28;20029;-57
2021/04/13 02:12:09;;;;;;;68.10;28.90;;;1.40;99.90;;;;;;5051476;28;20033;-55
2021/04/13 02:14:42;;;;;;;60.67;30.58;;;1.50;99.90;;;;;;5058544;28;20035;-57
2021/04/13 02:17:13;;;;;;;64.28;33.15;;;1.50;99.90;;;;;;5051128;28;20108;-56
2021/04/13 02:19:49;;;;;;;64.70;28.88;;;1.60;99.90;;;;;;5050350;28;20103;-57
2021/04/13 02:22:16;;;;;;;60.70;31.08;;;1.50;99.90;;;;;;5056598;28;20040;-58
2021/04/13 02:24:43;;;;;;;75.05;32.97;;;1.50;99.90;;;;;;5054296;28;20033;-57
2021/04/13 02:27:20;;;;;;;71.38;33.28;;;1.40;99.90;;;;;;5048743;28;20021;-57
2021/04/13 02:29:52;;;;;;;69.32;32.50;;;1.30;99.90;;;;;;5058796;28;20025;-57
2021/04/13 02:32:28;;;;;;;70.18;33.47;;;1.30;99.90;;;;;;5056361;28;20058;-57
2021/04/13 02:35:13;;;;;;;83.40;34.75;;;1.20;99.90;;;;;;5058944;28;20509;-58
2021/04/13 02:37:44;;;;;;;80.90;34.22;;;1.10;99.90;;;;;;5061103;28;20044;-56
2021/04/13 02:40:18;;;;;;;71.40;33.65;;;1.10;99.90;;;;;;5054475;28;20045;-57
2021/04/13 02:42:45;;;;;;;;;;;1.10;99.90;;;;;;5051952;28;20060;-56
2021/04/13 02:45:30;;;;;;;81.88;36.15;;;1.10;99.90;;;;;;5056167;28;19908;-57
2021/04/13 02:48:08;;;;;;;74.95;35.10;;;1.20;99.90;;;;;;5064264;28;20040;-56
2021/04/13 02:50:36;;;;;;;81.95;36.75;;;1.10;99.90;;;;;;5045704;28;20475;-57
2021/04/13 02:53:07;;;;;;;81.75;35.35;;;1.20;99.90;;;;;;5050718;28;20097;-58
2021/04/13 02:55:39;;;;;;;80.30;35.42;;;1.10;99.90;;;;;;5048417;28;20479;-56
2021/04/13 02:58:09;;;;;;;79.57;33.97;;;1.10;99.90;;;;;;5048236;28;20440;-57
2021/04/13 03:00:41;;;;;;;81.00;35.75;;;1.00;99.90;;;;;;5057356;28;20024;-57
2021/04/13 03:03:13;;;;;;;81.55;35.22;;;1.10;99.90;;;;;;5071667;22;20724;-57
2021/04/13 03:05:40;;;;;;;80.53;37.45;;;1.10;99.90;;;;;;5047607;28;20120;-58
2021/04/13 03:08:10;;;;;;;81.72;38.15;;;1.10;99.90;;;;;;5046241;28;20066;-60
2021/04/13 03:10:42;;;;;;;76.13;36.55;;;1.20;99.90;;;;;;5060928;28;20051;-59
2021/04/13 03:13:24;;;;;;;88.28;38.08;;;1.20;99.90;;;;;;5051161;28;20458;-59
2021/04/13 03:15:57;;;;;;;80.60;35.80;;;1.20;99.90;;;;;;5051811;28;20021;-59
2021/04/13 03:18:48;;;;;;;82.15;36.35;;;1.20;99.90;;;;;;5054405;28;20028;-60
2021/04/13 03:21:19;;;;;;;85.97;39.53;;;1.20;99.90;;;;;;5038496;28;20037;-61
2021/04/13 03:23:46;;;;;;;77.30;37.85;;;1.20;99.90;;;;;;5036843;28;20029;-59
2021/04/13 03:26:17;;;;;;;84.05;39.05;;;1.20;99.90;;;;;;5039099;28;20066;-60
2021/04/13 03:28:52;;;;;;;79.82;38.47;;;1.40;99.90;;;;;;5048979;28;20075;-58
2021/04/13 03:31:20;;;;;;;75.80;36.05;;;1.40;99.90;;;;;;5054086;28;20079;-57
2021/04/13 03:33:48;;;;;;;79.45;38.67;;;1.40;99.90;;;;;;5051233;28;20066;-58
2021/04/13 03:36:21;;;;;;;77.53;37.13;;;1.40;99.90;;;;;;5047944;28;20041;-57
2021/04/13 03:38:49;;;;;;;74.07;36.53;;;1.40;99.90;;;;;;5043645;28;20024;-56
2021/04/13 03:41:18;;;;;;;78.95;36.17;;;1.30;99.90;;;;;;5057323;28;20024;-58
2021/04/13 03:43:47;;;;;;;75.55;38.25;;;1.30;99.90;;;;;;5049075;28;20031;-59
2021/04/13 03:46:13;;;;;;;76.68;35.78;;;1.30;99.90;;;;;;5050290;28;21010;-61
2021/04/13 03:48:42;;;;;;;76.97;34.72;;;1.30;99.90;;;;;;5049227;28;20029;-58
2021/04/13 03:51:22;;;;;;;76.93;36.35;;;1.20;99.90;;;;;;5036647;28;20435;-58
2021/04/13 03:53:48;;;;;;;77.00;38.40;;;1.20;99.90;;;;;;5038306;28;20036;-60
2021/04/13 03:56:20;;;;;;;85.45;38.70;;;1.30;99.90;;;;;;5019306;28;20025;-59
2021/04/13 03:58:53;;;;;;;79.35;37.70;;;1.10;99.90;;;;;;5053911;28;20029;-57
2021/04/13 04:01:23;;;;;;;73.40;38.33;;;1.20;99.90;;;;;;5051927;28;20108;-59
2021/04/13 04:03:55;;;;;;;79.72;38.40;;;1.20;99.90;;;;;;5048983;28;20634;-60
2021/04/13 04:06:59;;;;;;;76.50;36.15;;;1.30;99.90;;;;;;5041809;28;20556;-58
2021/04/13 04:09:31;;;;;;;75.25;35.47;;;1.30;99.90;;;;;;5051689;28;20032;-58
2021/04/13 04:11:59;;;;;;;73.90;35.03;;;1.30;99.90;;;;;;5050155;28;20138;-58
2021/04/13 04:14:29;;;;;;;72.03;35.65;;;1.30;99.90;;;;;;5050590;28;20032;-56
2021/04/13 04:17:08;;;;;;;73.68;35.83;;;1.30;99.90;;;;;;5056999;28;20039;-58
2021/04/13 04:19:34;;;;;;;81.30;37.58;;;1.30;99.90;;;;;;5049625;28;20033;-57
2021/04/13 04:22:11;;;;;;;85.03;37.78;;;1.10;99.90;;;;;;5038733;28;20082;-59
2021/04/13 04:24:42;;;;;;;74.90;36.95;;;1.00;99.90;;;;;;5038017;28;20022;-56
2021/04/13 04:27:39;;;;;;;68.53;35.45;;;0.90;99.90;;;;;;5051523;28;20029;-56
2021/04/13 04:30:27;;;;;;;73.03;34.55;;;0.90;99.90;;;;;;5036850;28;20063;-59
2021/04/13 04:32:54;;;;;;;89.07;36.80;;;0.80;99.90;;;;;;5049671;28;20025;-61
2021/04/13 04:35:37;;;;;;;75.60;36.10;;;0.80;99.90;;;;;;5048278;28;20022;-56
2021/04/13 04:38:27;;;;;;;76.63;37.83;;;0.70;99.90;;;;;;5039278;28;20040;-60
2021/04/13 04:40:59;;;;;;;70.22;35.75;;;0.60;99.90;;;;;;5054603;28;20055;-58
2021/04/13 04:43:57;;;;;;;74.70;36.97;;;0.60;99.90;;;;;;5052506;28;20299;-56
2021/04/13 04:46:42;;;;;;;79.65;38.17;;;0.50;99.90;;;;;;5042546;28;20029;-57
2021/04/13 04:49:16;;;;;;;79.07;37.40;;;0.40;99.90;;;;;;5049106;28;20029;-57
2021/04/13 04:51:46;;;;;;;;;;;0.50;99.90;;;;;;5041684;28;20028;-57
2021/04/13 04:54:12;;;;;;;81.22;37.58;;;0.40;99.90;;;;;;5037989;28;19964;-57
2021/04/13 04:56:37;;;;;;;79.93;36.83;;;0.40;99.90;;;;;;5044003;28;20067;-58
2021/04/13 04:59:03;;;;;;;77.68;38.45;;;0.30;99.90;;;;;;5053021;28;20032;-59
2021/04/13 05:01:28;;;;;;;83.63;38.38;;;0.30;99.90;;;;;;5057333;28;20025;-59
2021/04/13 05:03:54;;;;;;;96.75;39.60;;;0.20;99.90;;;;;;5053430;28;20458;-58
2021/04/13 05:06:20;;;;;;;88.18;38.58;;;0.20;99.90;;;;;;5056523;28;20020;-59
2021/04/13 05:08:46;;;;;;;78.85;38.35;;;0.20;99.90;;;;;;5050604;28;20083;-59
2021/04/13 05:11:12;;;;;;;95.43;39.95;;;0.30;99.90;;;;;;5058351;28;20079;-59
2021/04/13 05:13:38;;;;;;;93.90;40.42;;;0.20;99.90;;;;;;5053806;28;20471;-56
2021/04/13 05:16:04;;;;;;;89.47;38.47;;;0.20;99.90;;;;;;5054532;28;20037;-58
2021/04/13 05:18:29;;;;;;;98.75;41.10;;;0.20;99.90;;;;;;5056967;28;20017;-57
2021/04/13 05:20:55;;;;;;;88.47;40.38;;;0.30;99.90;;;;;;5057512;28;20028;-55
2021/04/13 05:23:21;;;;;;;96.00;41.97;;;0.40;99.90;;;;;;5055577;28;20029;-60
2021/04/13 05:25:47;;;;;;;107.18;44.92;;;0.40;99.90;;;;;;5060259;28;20088;-58
2021/04/13 05:28:13;;;;;;;97.47;41.35;;;0.40;99.90;;;;;;5034421;28;20086;-59
2021/04/13 05:30:39;;;;;;;106.03;42.53;;;0.40;99.90;;;;;;5062744;28;20443;-58
2021/04/13 05:33:05;;;;;;;94.07;42.08;;;0.40;99.90;;;;;;5056378;28;20029;-56
2021/04/13 05:35:32;;;;;;;108.28;45.35;;;0.40;99.90;;;;;;5058111;28;20032;-58
2021/04/13 05:38:03;;;;;;;108.32;43.78;;;0.40;99.90;;;;;;5051675;28;20035;-58
2021/04/13 05:40:34;;;;;;;99.97;42.38;;;0.40;99.90;;;;;;5056914;28;20103;-58
2021/04/13 05:43:01;;;;;;;99.75;42.03;;;0.50;99.90;;;;;;5054037;28;20118;-58
2021/04/13 05:45:30;;;;;;;91.10;42.80;;;0.60;99.90;;;;;;5052657;28;20040;-56
2021/04/13 05:47:58;;;;;;;100.85;44.67;;;0.70;99.90;;;;;;5052660;28;20040;-58
2021/04/13 05:50:27;;;;;;;96.97;43.72;;;0.80;99.90;;;;;;5055882;28;20032;-57
2021/04/13 05:52:52;;;;;;;104.53;43.88;;;0.90;99.90;;;;;;5031737;28;20443;-58
2021/04/13 05:55:18;;;;;;;94.07;42.95;;;1.10;99.90;;;;;;5047860;28;20111;-59
2021/04/13 05:57:46;;;;;;;96.90;42.25;;;1.20;99.90;;;;;;5051415;28;20386;-57
2021/04/13 06:00:12;;;;;;;94.72;39.70;;;1.30;99.90;;;;;;5055397;28;20451;-57
2021/04/13 06:02:41;;;;;;;89.72;40.88;;;1.40;99.90;;;;;;5057646;28;20104;-57
2021/04/13 06:05:09;;;;;;;93.78;41.22;;;1.50;99.90;;;;;;5053546;28;20024;-58
2021/04/13 06:07:34;;;;;;;87.85;40.53;;;1.70;99.90;;;;;;5038330;28;20032;-58
2021/04/13 06:10:00;;;;;;;83.40;41.70;;;1.80;99.90;;;;;;5047093;28;20540;-57
2021/04/13 06:12:25;;;;;;;89.95;39.50;;;1.90;99.90;;;;;;5051474;28;20056;-57
2021/04/13 06:14:51;;;;;;;81.80;37.90;;;2.10;99.90;;;;;;5049825;28;20033;-59
2021/04/13 06:17:17;;;;;;;70.88;33.72;;;2.20;99.90;;;;;;5050205;28;20359;-57
2021/04/13 06:19:43;;;;;;;69.85;33.22;;;2.30;99.90;;;;;;5056735;28;20509;-57
2021/04/13 06:22:09;;;;;;;78.75;35.63;;;2.50;99.90;;;;;;5017915;28;20021;-58
2021/04/13 06:24:35;;;;;;;75.40;33.17;;;2.60;99.90;;;;;;5047559;28;20017;-58
2021/04/13 06:27:01;;;;;;;64.53;32.65;;;2.60;99.90;;;;;;5046727;28;20081;-58
2021/04/13 06:29:26;;;;;;;74.68;33.47;;;2.70;99.90;;;;;;5045727;28;20122;-58
2021/04/13 06:31:52;;;;;;;63.72;30.63;;;2.70;99.90;;;;;;5047996;28;20028;-57
2021/04/13 06:34:18;;;;;;;60.38;29.50;;;2.80;99.90;;;;;;5048050;28;20055;-60
2021/04/13 06:36:43;;;;;;;51.92;26.15;;;2.90;99.90;;;;;;5048482;28;20171;-58
2021/04/13 06:39:09;;;;;;;60.88;28.83;;;3.00;99.90;;;;;;5053528;28;20108;-59
2021/04/13 06:42:02;;;;;;;59.25;27.25;;;3.10;99.90;;;;;;5047124;28;20423;-58
2021/04/13 06:44:43;;;;;;;57.78;25.77;;;3.10;99.90;;;;;;5051382;28;20053;-58
2021/04/13 06:47:43;;;;;;;63.00;28.45;;;3.20;99.90;;;;;;5054503;28;20107;-58
2021/04/13 06:50:29;;;;;;;49.17;24.55;;;3.20;99.90;;;;;;5054380;28;20489;-58
2021/04/13 06:53:18;;;;;;;55.80;24.98;;;3.30;99.90;;;;;;5057217;28;20049;-57
2021/04/13 06:56:02;;;;;;;41.67;22.83;;;3.50;99.90;;;;;;5057121;28;20036;-58
2021/04/13 06:58:54;;;;;;;59.25;25.30;;;3.50;99.90;;;;;;5050403;28;20040;-58
2021/04/13 07:02:08;;;;;;;54.65;24.60;;;3.60;99.90;;;;;;5048350;28;20025;-59
2021/04/13 07:04:41;;;;;;;51.53;23.75;;;3.60;99.90;;;;;;5031241;28;20045;-57
2021/04/13 07:07:19;;;;;;;44.88;21.85;;;3.70;99.90;;;;;;5055321;28;20078;-57
2021/04/13 07:09:59;;;;;;;44.38;23.27;;;3.80;99.90;;;;;;5059691;28;20070;-59
2021/04/13 07:12:33;;;;;;;51.47;24.02;;;3.90;99.90;;;;;;5054955;28;20052;-59
2021/04/13 07:15:22;;;;;;;51.45;26.55;;;4.00;99.90;;;;;;5046819;28;20043;-59
2021/04/13 07:18:04;;;;;;;48.90;22.60;;;3.90;99.90;;;;;;5022289;28;20021;-59
2021/04/13 07:20:38;;;;;;;46.28;22.25;;;3.90;99.90;;;;;;5051201;28;20036;-59
2021/04/13 07:23:12;;;;;;;41.03;22.05;;;4.00;99.90;;;;;;5051943;28;20038;-59
2021/04/13 07:25:45;;;;;;;49.70;25.02;;;4.20;99.90;;;;;;5055855;28;20028;-59
2021/04/13 07:28:36;;;;;;;44.35;21.65;;;4.30;99.90;;;;;;5049732;28;20420;-55
2021/04/13 07:31:12;;;;;;;47.00;22.15;;;4.30;99.90;;;;;;5049668;28;20483;-58
2021/04/13 07:33:37;;;;;;;44.83;20.95;;;4.30;99.90;;;;;;5048887;28;20217;-59
2021/04/13 07:36:09;;;;;;;41.70;20.65;;;4.40;99.90;;;;;;5047808;28;20111;-58
2021/04/13 07:38:45;;;;;;;45.63;21.63;;;4.40;99.90;;;;;;5049201;28;20021;-59
2021/04/13 07:41:24;;;;;;;43.35;22.50;;;4.50;99.90;;;;;;5054126;28;20171;-58
2021/04/13 07:44:00;;;;;;;49.42;21.38;;;4.60;99.90;;;;;;5051414;28;20035;-59
2021/04/13 07:46:34;;;;;;;42.55;19.63;;;4.70;99.90;;;;;;5047370;28;20060;-59
2021/04/13 07:49:13;;;;;;;;;;;4.80;99.90;;;;;;5043346;28;20089;-59
2021/04/13 07:51:44;;;;;;;44.78;19.50;;;5.00;99.90;;;;;;5050958;28;19917;-59
2021/04/13 07:54:32;;;;;;;37.53;15.07;;;5.00;99.90;;;;;;5027879;28;20073;-59
2021/04/13 07:57:03;;;;;;;33.03;14.52;;;5.10;99.90;;;;;;5049468;28;20029;-59
2021/04/13 07:59:44;;;;;;;31.85;16.38;;;5.30;99.90;;;;;;5055016;28;20028;-59
2021/04/13 08:02:10;;;;;;;32.50;17.45;;;5.40;99.90;;;;;;5046986;28;20052;-60
2021/04/13 08:04:36;;;;;;;35.50;15.00;;;5.40;99.90;;;;;;5053333;28;20132;-60
2021/04/13 08:07:12;;;;;;;30.33;14.95;;;5.30;99.90;;;;;;5045468;28;20558;-60
2021/04/13 08:09:42;;;;;;;28.92;14.13;;;5.30;99.90;;;;;;5047769;28;20043;-59
2021/04/13 08:12:08;;;;;;;27.77;12.85;;;5.30;99.90;;;;;;5050263;28;20240;-58
2021/04/13 08:14:37;;;;;;;32.00;11.80;;;5.50;99.90;;;;;;5053692;28;20056;-58
2021/04/13 08:17:25;;;;;;;27.58;11.38;;;5.60;99.90;;;;;;5053920;28;20036;-60
2021/04/13 08:20:03;;;;;;;32.58;12.52;;;5.60;99.90;;;;;;5051373;28;20037;-59
2021/04/13 08:22:49;;;;;;;22.15;11.23;;;5.60;99.90;;;;;;5052251;28;20029;-60
2021/04/13 08:25:30;;;;;;;47.92;11.98;;;5.60;99.90;;;;;;5050952;28;20071;-59
2021/04/13 08:28:27;;;;;;;33.42;12.23;;;5.60;99.90;;;;;;5048025;28;20080;-59
2021/04/13 08:34:18;;;;;;;25.88;12.02;;;5.90;99.90;;;;;;5046744;28;20041;-57
2021/04/13 08:36:53;;;;;;;24.67;11.68;;;6.00;99.90;;;;;;5062246;28;20024;-56
2021/04/13 08:39:25;;;;;;;24.30;9.40;;;5.90;99.90;;;;;;5045424;28;20384;-57
2021/04/13 08:42:30;;;;;;;24.75;9.82;;;6.00;99.90;;;;;;5063925;28;20041;-54
2021/04/13 08:45:01;;;;;;;;;;;6.10;99.90;;;;;;5064437;28;20029;-55
2021/04/13 08:47:36;;;;;;;19.42;7.65;;;6.10;99.90;;;;;;5055280;28;19916;-56
2021/04/13 08:50:23;;;;;;;27.52;8.85;;;6.10;99.90;;;;;;5050027;28;20491;-55
2021/04/13 08:53:02;;;;;;;21.08;9.35;;;6.10;99.90;;;;;;5053812;28;20491;-56
2021/04/13 08:55:37;;;;;;;21.80;8.27;;;6.20;99.90;;;;;;5059808;28;20024;-57
2021/04/13 08:58:27;;;;;;;22.75;8.00;;;6.30;99.90;;;;;;5057839;28;20094;-56
2021/04/13 09:00:55;;;;;;;21.30;8.43;;;6.40;99.90;;;;;;5057508;28;20036;-55
2021/04/13 09:03:25;;;;;;;21.05;7.65;;;6.40;99.90;;;;;;5049413;28;20025;-56
2021/04/13 09:06:10;;;;;;;16.15;7.07;;;6.40;99.90;;;;;;5077902;22;20119;-53
2021/04/13 09:09:01;;;;;;;16.25;6.88;;;6.40;99.90;;;;;;5050922;28;20112;-56
2021/04/13 09:11:29;;;;;;;21.25;6.40;;;6.60;99.90;;;;;;5048494;28;20025;-53
2021/04/13 09:14:25;;;;;;;22.55;6.88;;;6.80;99.90;;;;;;5057978;28;20039;-53
2021/04/13 09:17:17;;;;;;;16.38;6.20;;;7.00;99.90;;;;;;5055922;28;20095;-52
2021/04/13 09:19:54;;;;;;;19.05;5.30;;;7.20;99.90;;;;;;5029158;28;20032;-54
2021/04/13 09:22:27;;;;;;;18.75;6.03;;;7.30;99.90;;;;;;5048221;28;20021;-54
2021/04/13 09:25:06;;;;;;;17.92;5.38;;;7.50;99.90;;;;;;5049191;28;20036;-56
2021/04/13 09:27:50;;;;;;;23.27;5.20;;;7.50;99.90;;;;;;5043206;28;20160;-54
2021/04/13 09:30:18;;;;;;;13.98;5.13;;;7.50;99.90;;;;;;5042147;28;20638;-54
2021/04/13 09:32:46;;;;;;;20.65;5.18;;;7.20;99.90;;;;;;5044997;28;20396;-51
2021/04/13 09:35:18;;;;;;;14.68;3.92;;;7.30;99.90;;;;;;5049715;28;20116;-55
2021/04/13 09:38:16;;;;;;;11.65;4.97;;;7.50;99.90;;;;;;5053062;28;20025;-55
2021/04/13 09:41:28;;;;;;;22.48;5.28;;;7.50;99.90;;;;;;5050196;28;20059;-55
2021/04/13 09:44:06;;;;;;;19.50;5.38;;;7.40;99.90;;;;;;5055512;28;20406;-55
2021/04/13 09:47:02;;;;;;;16.45;5.03;;;7.30;99.90;;;;;;5043005;28;20144;-54
2021/04/13 09:49:38;;;;;;;7.97;3.28;;;7.50;99.90;;;;;;5050772;28;20025;-57
2021/04/13 09:52:41;;;;;;;16.25;3.03;;;7.40;99.90;;;;;;5049334;28;20036;-54
2021/04/13 09:55:27;;;;;;;14.52;5.03;;;7.30;99.90;;;;;;5050339;28;20021;-55
2021/04/13 09:58:18;;;;;;;19.33;6.18;;;7.20;99.90;;;;;;5050633;28;20056;-57
2021/04/13 10:00:54;;;;;;;18.45;5.88;;;7.20;99.90;;;;;;5045424;28;20021;-55
2021/04/13 10:03:57;;;;;;;14.73;6.47;;;7.30;99.90;;;;;;5046662;28;20118;-55
2021/04/13 10:07:01;;;;;;;13.75;5.25;;;7.60;99.90;;;;;;5046388;28;20036;-55
2021/04/13 10:09:36;;;;;;;20.83;5.30;;;7.50;99.90;;;;;;5050532;28;20609;-53
2021/04/13 10:12:28;;;;;;;12.02;3.92;;;7.60;99.90;;;;;;5047815;28;20185;-53
2021/04/13 10:15:31;;;;;;;15.02;3.28;;;7.60;99.90;;;;;;5046569;28;20037;-54
2021/04/13 10:18:06;;;;;;;16.40;4.63;;;7.60;99.90;;;;;;5059193;28;20059;-52
2021/04/13 10:20:55;;;;;;;11.90;4.32;;;7.70;99.90;;;;;;5044659;28;20035;-57
2021/04/13 10:23:45;;;;;;;13.48;5.53;;;7.90;99.90;;;;;;5047445;28;20025;-55
2021/04/13 10:26:25;;;;;;;16.20;6.22;;;8.00;99.90;;;;;;5051489;28;20399;-54
2021/04/13 10:29:36;;;;;;;12.73;5.47;;;8.00;99.90;;;;;;5049659;28;20127;-54
2021/04/13 10:32:31;;;;;;;6.72;4.90;;;7.90;99.90;;;;;;5048681;28;20040;-54
2021/04/13 10:35:35;;;;;;;11.45;4.93;;;7.70;99.90;;;;;;5047646;28;20036;-55
2021/04/13 10:38:22;;;;;;;10.45;3.97;;;7.70;99.90;;;;;;5048389;28;20379;-51
2021/04/13 10:41:32;;;;;;;10.98;5.13;;;7.80;99.90;;;;;;5046494;28;20075;-52
2021/04/13 10:44:16;;;;;;;16.92;5.13;;;8.40;99.90;;;;;;5046102;28;20021;-54
2021/04/13 10:47:10;;;;;;;12.43;4.60;;;9.00;99.90;;;;;;5044710;28;20105;-56
2021/04/13 10:50:04;;;;;;;13.45;4.90;;;9.50;99.90;;;;;;5042902;28;20087;-54
2021/04/13 10:53:00;;;;;;;13.70;5.17;;;9.20;99.90;;;;;;5043128;28;20029;-54
2021/04/13 10:55:56;;;;;;;13.07;5.53;;;9.30;99.90;;;;;;5045535;28;20290;-54
2021/04/13 10:58:42;;;;;;;11.25;4.90;;;9.40;99.90;;;;;;5041573;28;20039;-57
2021/04/13 11:01:32;;;;;;;12.38;5.10;;;9.80;99.90;;;;;;5046276;28;20020;-56
2021/04/13 11:04:10;;;;;;;14.07;5.18;;;9.70;99.90;;;;;;5049051;28;20052;-55
2021/04/13 11:07:10;;;;;;;13.18;5.47;;;10.00;99.90;;;;;;5047204;28;20503;-55
2021/04/13 11:09:54;;;;;;;9.77;4.25;;;10.20;99.90;;;;;;5040591;28;20065;-53
2021/04/13 11:12:41;;;;;;;8.93;3.77;;;10.50;99.90;;;;;;5040955;28;20030;-54
2021/04/13 11:15:43;;;;;;;14.55;3.92;;;10.00;99.90;;;;;;5044283;28;20274;-54
2021/04/13 11:18:38;;;;;;;9.05;3.58;;;9.50;99.90;;;;;;5046866;28;20043;-52
2021/04/13 11:21:12;;;;;;;7.07;2.50;;;9.20;99.90;;;;;;5044626;28;20024;-56
2021/04/13 11:23:57;;;;;;;11.15;2.75;;;8.90;99.90;;;;;;5042251;28;20060;-55
2021/04/13 11:26:57;;;;;;;14.93;3.53;;;8.60;99.90;;;;;;5037413;28;20499;-56
2021/04/13 11:29:22;;;;;;;12.10;2.15;;;8.60;99.90;;;;;;5048532;28;20063;-54
2021/04/13 11:32:31;;;;;;;10.52;2.78;;;8.70;99.90;;;;;;5048229;28;20538;-55
2021/04/13 11:35:19;;;;;;;12.43;2.88;;;8.80;99.90;;;;;;5047984;28;20037;-52
2021/04/13 11:38:03;;;;;;;9.48;2.60;;;9.10;99.90;;;;;;5041357;28;20032;-54
2021/04/13 11:40:38;;;;;;;8.82;2.50;;;9.60;99.90;;;;;;5044949;28;20108;-54
2021/04/13 11:43:08;;;;;;;9.23;2.25;;;10.00;99.90;;;;;;5047525;28;20459;-54
2021/04/13 11:46:02;;;;;;;8.90;3.63;;;10.50;99.90;;;;;;5042565;28;20049;-56
2021/04/13 11:48:42;;;;;;;8.67;3.10;;;11.00;99.90;;;;;;5047439;28;20033;-55
2021/04/13 11:51:20;;;;;;;6.53;3.40;;;11.10;99.90;;;;;;5048153;28;20018;-51
2021/04/13 11:53:49;;;;;;;6.47;3.47;;;11.40;99.90;;;;;;5041718;28;20065;-54
2021/04/13 11:56:21;;;;;;;11.60;3.05;;;10.90;99.90;;;;;;5043512;28;20108;-54
2021/04/13 11:59:16;;;;;;;11.90;3.00;;;10.70;99.90;;;;;;5047415;28;20287;-55
2021/04/13 12:01:45;;;;;;;14.60;2.50;;;10.50;99.90;;;;;;5048936;28;20028;-55
2021/04/13 12:04:17;;;;;;;8.98;2.55;;;10.70;99.90;;;;;;5042039;28;20044;-55
2021/04/13 12:06:56;;;;;;;9.13;2.55;;;10.80;99.90;;;;;;5043093;28;20033;-54
2021/04/13 12:09:49;;;;;;;6.65;1.40;;;10.50;99.90;;;;;;5048390;28;20372;-58
2021/04/13 12:12:33;;;;;;;9.27;1.70;;;10.30;99.90;;;;;;5054661;28;20038;-55
2021/04/13 12:15:02;;;;;;;6.72;1.63;;;10.00;99.90;;;;;;5047023;28;20120;-54
2021/04/13 12:17:41;;;;;;;5.90;1.55;;;9.60;99.90;;;;;;5051676;28;20055;-55
2021/04/13 12:20:28;;;;;;;9.15;1.83;;;9.40;99.90;;;;;;5057321;28;20031;-52
2021/04/13 12:23:05;;;;;;;9.68;1.90;;;9.40;99.90;;;;;;5052033;28;20453;-54
2021/04/13 12:25:36;;;;;;;3.38;1.40;;;9.70;99.90;;;;;;5054234;28;20029;-57
2021/04/13 12:28:08;;;;;;;6.13;1.40;;;9.90;99.90;;;;;;5045298;28;20032;-55
2021/04/13 12:30:41;;;;;;;8.73;1.67;;;10.10;99.90;;;;;;5056089;28;20029;-55
2021/04/13 12:33:31;;;;;;;6.00;1.67;;;10.50;99.90;;;;;;5046994;28;20039;-53
2021/04/13 12:36:02;;;;;;;9.48;2.00;;;11.10;99.90;;;;;;5058552;28;20112;-53
2021/04/13 12:38:50;;;;;;;6.20;1.67;;;11.30;99.90;;;;;;5051996;28;20029;-53
2021/04/13 12:41:18;;;;;;;15.55;3.75;;;10.90;99.90;;;;;;5054019;28;20031;-55
2021/04/13 12:43:57;;;;;;;4.25;1.45;;;10.70;99.90;;;;;;5047352;28;20088;-55
2021/04/13 12:46:31;;;;;;;8.05;1.35;;;10.70;99.90;;;;;;5041938;28;20032;-55
2021/04/13 12:48:58;;;;;;;;;;;11.00;99.90;;;;;;5047143;28;20034;-53
2021/04/13 12:51:37;;;;;;;5.13;1.52;;;11.30;99.90;;;;;;5047722;28;19927;-56
2021/04/13 12:54:30;;;;;;;10.23;1.80;;;11.30;99.90;;;;;;5057051;28;20182;-57
2021/04/13 12:57:12;;;;;;;8.95;1.63;;;11.60;98.30;;;;;;5044593;28;20041;-53
2021/04/13 12:59:39;;;;;;;88.20;43.80;;;11.90;99.90;;;;;;5045589;28;20021;-55
2021/04/13 13:02:07;;;;;;;8.43;2.35;;;12.00;97.40;;;;;;5046293;28;20017;-55
2021/04/13 13:04:41;;;;;;;6.80;2.30;;;12.00;97.40;;;;;;5049754;28;20025;-54
2021/04/13 13:07:19;;;;;;;3.63;1.45;;;11.90;98.20;;;;;;5051187;28;20020;-55
2021/04/13 13:09:45;;;;;;;4.88;2.33;;;11.70;97.60;;;;;;5056308;28;20115;-54
2021/04/13 13:12:30;;;;;;;6.75;3.22;;;11.30;99.70;;;;;;5051975;28;20189;-55
2021/04/13 13:15:10;;;;;;;11.88;2.10;;;11.20;99.90;;;;;;5050095;28;20033;-54
2021/04/13 13:17:43;;;;;;;10.68;1.80;;;10.90;99.90;;;;;;5045351;28;20380;-52
2021/04/13 13:20:15;;;;;;;6.70;1.60;;;10.90;99.90;;;;;;5041587;28;20800;-56
2021/04/13 13:22:50;;;;;;;9.25;1.50;;;11.30;99.90;;;;;;5052081;28;20357;-55
2021/04/13 13:25:22;;;;;;;4.63;1.10;;;11.70;99.90;;;;;;5049854;28;20391;-55
2021/04/13 13:27:48;;;;;;;8.43;1.80;;;11.70;99.90;;;;;;5054827;28;20029;-55
2021/04/13 13:30:15;;;;;;;4.07;1.40;;;11.80;99.90;;;;;;5048505;28;20029;-54
2021/04/13 13:32:41;;;;;;;8.05;1.55;;;12.10;99.90;;;;;;5058013;28;20463;-56
2021/04/13 13:35:15;;;;;;;5.18;1.27;;;12.30;99.90;;;;;;5054190;28;20060;-56
2021/04/13 13:37:47;;;;;;;11.07;1.50;;;12.30;98.00;;;;;;5058764;28;20123;-56
2021/04/13 13:40:22;;;;;;;7.80;1.45;;;12.40;96.40;;;;;;5048676;28;20053;-52